sensor_id;sensor_type;location;lat;lon;timestamp;temperature;humidity
19930;DHT22;10127;47.780;9.606;2023-02-28T00:01:26;1.10;99.90
19930;DHT22;10127;47.780;9.606;2023-02-28T00:03:51;1.10;99.90
19930;DHT22;10127;47.780;9.606;2023-02-28T00:06:17;1.30;99.90
19930;DHT22;10127;47.780;9.606;2023-02-28T00:08:43;1.30;99.90
19930;DHT22;10127;47.780;9.606;2023-02-28T00:11:11;1.30;99.90
19930;DHT22;10127;47.780;9.606;2023-02-28T00:13:41;1.20;99.90
19930;DHT22;10127;47.780;9.606;2023-02-28T00:16:10;1.30;99.90
19930;DHT22;10127;47.780;9.606;2023-02-28T00:18:37;1.40;99.90
19930;DHT22;10127;47.780;9.606;2023-02-28T00:21:03;1.20;99.90
19930;DHT22;10127;47.780;9.606;2023-02-28T00:23:29;1.10;99.90
19930;DHT22;10127;47.780;9.606;2023-02-28T00:25:54;1.10;99.90
19930;DHT22;10127;47.780;9.606;2023-02-28T00:28:21;1.00;99.90
19930;DHT22;10127;47.780;9.606;2023-02-28T00:30:46;0.90;99.90
19930;DHT22;10127;47.780;9.606;2023-02-28T00:33:12;0.90;99.90
19930;DHT22;10127;47.780;9.606;2023-02-28T00:35:38;0.90;99.90
19930;DHT22;10127;47.780;9.606;2023-02-28T00:38:04;1.00;99.90
19930;DHT22;10127;47.780;9.606;2023-02-28T00:40:30;1.10;99.90
19930;DHT22;10127;47.780;9.606;2023-02-28T00:42:55;1.10;99.90
19930;DHT22;10127;47.780;9.606;2023-02-28T00:45:21;1.10;99.90
19930;DHT22;10127;47.780;9.606;2023-02-28T00:47:47;1.10;99.90
19930;DHT22;10127;47.780;9.606;2023-02-28T00:50:23;1.00;99.90
19930;DHT22;10127;47.780;9.606;2023-02-28T00:52:49;0.90;99.90
19930;DHT22;10127;47.780;9.606;2023-02-28T00:55:15;0.90;99.90
19930;DHT22;10127;47.780;9.606;2023-02-28T00:57:40;1.00;99.90
19930;DHT22;10127;47.780;9.606;2023-02-28T01:00:07;1.10;99.90
19930;DHT22;10127;47.780;9.606;2023-02-28T01:02:33;1.10;99.90
19930;DHT22;10127;47.780;9.606;2023-02-28T01:04:59;1.30;99.90
19930;DHT22;10127;47.780;9.606;2023-02-28T01:07:24;1.30;99.90
19930;DHT22;10127;47.780;9.606;2023-02-28T01:09:50;1.10;99.90
19930;DHT22;10127;47.780;9.606;2023-02-28T01:12:16;1.10;99.90
19930;DHT22;10127;47.780;9.606;2023-02-28T01:14:42;1.00;99.90
19930;DHT22;10127;47.780;9.606;2023-02-28T01:17:08;1.00;99.90
19930;DHT22;10127;47.780;9.606;2023-02-28T01:19:34;0.90;99.90
19930;DHT22;10127;47.780;9.606;2023-02-28T01:22:04;0.80;99.90
19930;DHT22;10127;47.780;9.606;2023-02-28T01:24:30;1.00;99.90
19930;DHT22;10127;47.780;9.606;2023-02-28T01:26:56;0.90;99.90
19930;DHT22;10127;47.780;9.606;2023-02-28T01:29:21;1.00;99.90
19930;DHT22;10127;47.780;9.606;2023-02-28T01:31:47;1.00;99.90
19930;DHT22;10127;47.780;9.606;2023-02-28T01:34:13;1.00;99.90
19930;DHT22;10127;47.780;9.606;2023-02-28T01:36:38;1.00;99.90
19930;DHT22;10127;47.780;9.606;2023-02-28T01:39:04;1.00;99.90
19930;DHT22;10127;47.780;9.606;2023-02-28T01:41:32;1.00;99.90
19930;DHT22;10127;47.780;9.606;2023-02-28T01:44:00;1.20;99.90
19930;DHT22;10127;47.780;9.606;2023-02-28T01:46:29;1.30;99.90
19930;DHT22;10127;47.780;9.606;2023-02-28T01:49:01;1.20;99.90
19930;DHT22;10127;47.780;9.606;2023-02-28T01:53:58;1.20;99.90
19930;DHT22;10127;47.780;9.606;2023-02-28T01:56:29;1.20;99.90
19930;DHT22;10127;47.780;9.606;2023-02-28T01:58:56;1.00;99.90
19930;DHT22;10127;47.780;9.606;2023-02-28T02:01:22;1.20;99.90
19930;DHT22;10127;47.780;9.606;2023-02-28T02:03:54;0.90;99.90
19930;DHT22;10127;47.780;9.606;2023-02-28T02:06:22;1.10;99.90
19930;DHT22;10127;47.780;9.606;2023-02-28T02:08:49;1.10;99.90
19930;DHT22;10127;47.780;9.606;2023-02-28T02:11:18;1.20;99.90
19930;DHT22;10127;47.780;9.606;2023-02-28T02:13:54;1.20;99.90
19930;DHT22;10127;47.780;9.606;2023-02-28T02:33:06;1.10;99.90
19930;DHT22;10127;47.780;9.606;2023-02-28T02:43:58;1.20;99.90
19930;DHT22;10127;47.780;9.606;2023-02-28T02:46:32;1.20;99.90
19930;DHT22;10127;47.780;9.606;2023-02-28T02:49:01;1.20;99.90
19930;DHT22;10127;47.780;9.606;2023-02-28T03:12:11;1.10;99.90
19930;DHT22;10127;47.780;9.606;2023-02-28T03:20:17;1.10;99.90
19930;DHT22;10127;47.780;9.606;2023-02-28T03:31:31;0.80;99.90
19930;DHT22;10127;47.780;9.606;2023-02-28T03:34:03;0.90;99.90
19930;DHT22;10127;47.780;9.606;2023-02-28T03:36:41;0.90;99.90
19930;DHT22;10127;47.780;9.606;2023-02-28T03:39:16;0.70;99.90
19930;DHT22;10127;47.780;9.606;2023-02-28T03:41:48;0.70;99.90
19930;DHT22;10127;47.780;9.606;2023-02-28T03:44:21;0.70;99.90
19930;DHT22;10127;47.780;9.606;2023-02-28T03:47:02;0.80;99.90
19930;DHT22;10127;47.780;9.606;2023-02-28T03:49:34;0.80;99.90
19930;DHT22;10127;47.780;9.606;2023-02-28T03:52:02;0.90;99.90
19930;DHT22;10127;47.780;9.606;2023-02-28T03:54:48;0.90;99.90
19930;DHT22;10127;47.780;9.606;2023-02-28T03:59:56;0.90;99.90
19930;DHT22;10127;47.780;9.606;2023-02-28T04:02:24;0.70;99.90
19930;DHT22;10127;47.780;9.606;2023-02-28T04:04:50;0.90;99.90
19930;DHT22;10127;47.780;9.606;2023-02-28T04:07:17;0.80;99.90
19930;DHT22;10127;47.780;9.606;2023-02-28T04:09:43;1.00;99.90
19930;DHT22;10127;47.780;9.606;2023-02-28T04:12:09;1.10;99.90
19930;DHT22;10127;47.780;9.606;2023-02-28T04:14:34;1.10;99.90
19930;DHT22;10127;47.780;9.606;2023-02-28T04:17:00;1.00;99.90
19930;DHT22;10127;47.780;9.606;2023-02-28T04:19:25;0.90;99.90
19930;DHT22;10127;47.780;9.606;2023-02-28T04:21:52;1.20;99.90
19930;DHT22;10127;47.780;9.606;2023-02-28T04:24:21;1.10;99.90
19930;DHT22;10127;47.780;9.606;2023-02-28T04:26:50;0.90;99.90
19930;DHT22;10127;47.780;9.606;2023-02-28T04:29:22;0.90;99.90
19930;DHT22;10127;47.780;9.606;2023-02-28T04:31:48;0.90;99.90
19930;DHT22;10127;47.780;9.606;2023-02-28T04:34:14;0.90;99.90
19930;DHT22;10127;47.780;9.606;2023-02-28T04:36:39;0.80;99.90
19930;DHT22;10127;47.780;9.606;2023-02-28T04:39:05;0.70;99.90
19930;DHT22;10127;47.780;9.606;2023-02-28T04:41:31;0.80;99.90
19930;DHT22;10127;47.780;9.606;2023-02-28T04:43:56;0.90;99.90
19930;DHT22;10127;47.780;9.606;2023-02-28T04:46:23;0.90;99.90
19930;DHT22;10127;47.780;9.606;2023-02-28T04:48:48;1.00;99.90
19930;DHT22;10127;47.780;9.606;2023-02-28T04:51:16;1.00;99.90
19930;DHT22;10127;47.780;9.606;2023-02-28T04:53:43;0.80;99.90
19930;DHT22;10127;47.780;9.606;2023-02-28T04:56:12;1.00;99.90
19930;DHT22;10127;47.780;9.606;2023-02-28T04:58:38;1.00;99.90
19930;DHT22;10127;47.780;9.606;2023-02-28T05:01:07;0.90;99.90
19930;DHT22;10127;47.780;9.606;2023-02-28T05:03:41;0.90;99.90
19930;DHT22;10127;47.780;9.606;2023-02-28T05:06:10;1.00;99.90
19930;DHT22;10127;47.780;9.606;2023-02-28T05:08:36;1.00;99.90
19930;DHT22;10127;47.780;9.606;2023-02-28T05:11:03;1.00;99.90
19930;DHT22;10127;47.780;9.606;2023-02-28T05:13:29;1.00;99.90
19930;DHT22;10127;47.780;9.606;2023-02-28T05:15:55;0.80;99.90
19930;DHT22;10127;47.780;9.606;2023-02-28T05:18:21;0.90;99.90
19930;DHT22;10127;47.780;9.606;2023-02-28T05:20:47;0.90;99.90
19930;DHT22;10127;47.780;9.606;2023-02-28T05:23:13;0.80;99.90
19930;DHT22;10127;47.780;9.606;2023-02-28T05:25:40;0.80;99.90
19930;DHT22;10127;47.780;9.606;2023-02-28T05:28:06;0.90;99.90
19930;DHT22;10127;47.780;9.606;2023-02-28T05:30:32;1.00;99.90
19930;DHT22;10127;47.780;9.606;2023-02-28T05:32:58;0.90;99.90
19930;DHT22;10127;47.780;9.606;2023-02-28T05:35:24;0.90;99.90
19930;DHT22;10127;47.780;9.606;2023-02-28T05:37:50;1.10;99.90
19930;DHT22;10127;47.780;9.606;2023-02-28T05:40:16;0.80;99.90
19930;DHT22;10127;47.780;9.606;2023-02-28T05:42:42;0.90;99.90
19930;DHT22;10127;47.780;9.606;2023-02-28T05:45:08;1.10;99.90
19930;DHT22;10127;47.780;9.606;2023-02-28T05:47:35;1.20;99.90
19930;DHT22;10127;47.780;9.606;2023-02-28T05:50:01;1.50;99.90
19930;DHT22;10127;47.780;9.606;2023-02-28T05:52:28;1.50;99.90
19930;DHT22;10127;47.780;9.606;2023-02-28T05:54:55;1.00;99.90
19930;DHT22;10127;47.780;9.606;2023-02-28T05:57:21;1.10;99.90
19930;DHT22;10127;47.780;9.606;2023-02-28T05:59:47;1.10;99.90
19930;DHT22;10127;47.780;9.606;2023-02-28T06:02:14;1.00;99.90
19930;DHT22;10127;47.780;9.606;2023-02-28T06:04:40;1.00;99.90
19930;DHT22;10127;47.780;9.606;2023-02-28T06:07:07;0.90;99.90
19930;DHT22;10127;47.780;9.606;2023-02-28T06:09:33;0.70;99.90
19930;DHT22;10127;47.780;9.606;2023-02-28T06:12:00;0.80;99.90
19930;DHT22;10127;47.780;9.606;2023-02-28T06:14:28;1.00;99.90
19930;DHT22;10127;47.780;9.606;2023-02-28T06:16:53;1.10;99.90
19930;DHT22;10127;47.780;9.606;2023-02-28T06:19:19;1.00;99.90
19930;DHT22;10127;47.780;9.606;2023-02-28T06:21:45;1.10;99.90
19930;DHT22;10127;47.780;9.606;2023-02-28T06:24:13;1.30;99.90
19930;DHT22;10127;47.780;9.606;2023-02-28T06:26:39;1.30;99.90
19930;DHT22;10127;47.780;9.606;2023-02-28T06:29:05;1.30;99.90
19930;DHT22;10127;47.780;9.606;2023-02-28T06:31:30;1.40;99.90
19930;DHT22;10127;47.780;9.606;2023-02-28T06:33:56;1.50;99.90
19930;DHT22;10127;47.780;9.606;2023-02-28T06:36:22;1.70;99.90
19930;DHT22;10127;47.780;9.606;2023-02-28T06:38:47;1.80;99.90
19930;DHT22;10127;47.780;9.606;2023-02-28T06:41:21;2.00;99.90
19930;DHT22;10127;47.780;9.606;2023-02-28T06:43:46;2.00;99.90
19930;DHT22;10127;47.780;9.606;2023-02-28T06:46:14;2.00;99.90
19930;DHT22;10127;47.780;9.606;2023-02-28T06:48:40;1.80;99.90
19930;DHT22;10127;47.780;9.606;2023-02-28T06:51:07;1.40;99.90
19930;DHT22;10127;47.780;9.606;2023-02-28T06:53:34;1.20;99.90
19930;DHT22;10127;47.780;9.606;2023-02-28T06:55:59;1.10;99.90
19930;DHT22;10127;47.780;9.606;2023-02-28T06:58:29;1.20;99.90
19930;DHT22;10127;47.780;9.606;2023-02-28T07:00:54;1.30;99.90
19930;DHT22;10127;47.780;9.606;2023-02-28T07:03:21;1.20;99.90
19930;DHT22;10127;47.780;9.606;2023-02-28T07:05:47;0.80;99.90
19930;DHT22;10127;47.780;9.606;2023-02-28T07:08:12;0.90;99.90
19930;DHT22;10127;47.780;9.606;2023-02-28T07:10:38;1.30;99.90
19930;DHT22;10127;47.780;9.606;2023-02-28T07:13:06;1.30;99.90
19930;DHT22;10127;47.780;9.606;2023-02-28T07:15:31;1.50;99.90
19930;DHT22;10127;47.780;9.606;2023-02-28T07:17:57;1.40;99.90
19930;DHT22;10127;47.780;9.606;2023-02-28T07:20:23;1.10;99.90
19930;DHT22;10127;47.780;9.606;2023-02-28T07:22:50;1.40;99.90
19930;DHT22;10127;47.780;9.606;2023-02-28T07:25:25;1.50;99.90
19930;DHT22;10127;47.780;9.606;2023-02-28T07:27:51;1.50;99.90
19930;DHT22;10127;47.780;9.606;2023-02-28T07:30:17;1.60;99.90
19930;DHT22;10127;47.780;9.606;2023-02-28T07:32:43;1.60;99.90
19930;DHT22;10127;47.780;9.606;2023-02-28T07:35:09;1.50;99.90
19930;DHT22;10127;47.780;9.606;2023-02-28T07:37:34;1.50;99.90
19930;DHT22;10127;47.780;9.606;2023-02-28T07:40:07;1.50;99.90
19930;DHT22;10127;47.780;9.606;2023-02-28T07:42:35;1.50;99.90
19930;DHT22;10127;47.780;9.606;2023-02-28T07:45:01;1.70;99.90
19930;DHT22;10127;47.780;9.606;2023-02-28T07:47:29;1.80;99.90
19930;DHT22;10127;47.780;9.606;2023-02-28T07:49:55;1.80;99.90
19930;DHT22;10127;47.780;9.606;2023-02-28T07:52:20;2.00;99.90
19930;DHT22;10127;47.780;9.606;2023-02-28T07:54:46;2.10;99.90
19930;DHT22;10127;47.780;9.606;2023-02-28T07:57:11;2.30;99.90
19930;DHT22;10127;47.780;9.606;2023-02-28T07:59:37;2.40;99.90
19930;DHT22;10127;47.780;9.606;2023-02-28T08:02:03;2.10;99.90
19930;DHT22;10127;47.780;9.606;2023-02-28T08:04:31;2.40;99.90
19930;DHT22;10127;47.780;9.606;2023-02-28T08:06:57;2.10;99.90
19930;DHT22;10127;47.780;9.606;2023-02-28T08:09:23;2.20;99.90
19930;DHT22;10127;47.780;9.606;2023-02-28T08:11:49;1.90;99.90
19930;DHT22;10127;47.780;9.606;2023-02-28T08:14:14;2.00;99.90
19930;DHT22;10127;47.780;9.606;2023-02-28T08:16:40;2.20;99.90
19930;DHT22;10127;47.780;9.606;2023-02-28T08:19:05;2.30;99.90
19930;DHT22;10127;47.780;9.606;2023-02-28T08:21:32;2.10;99.90
19930;DHT22;10127;47.780;9.606;2023-02-28T08:23:58;2.20;99.90
19930;DHT22;10127;47.780;9.606;2023-02-28T08:26:23;2.30;99.90
19930;DHT22;10127;47.780;9.606;2023-02-28T08:28:49;2.30;99.90
19930;DHT22;10127;47.780;9.606;2023-02-28T08:31:16;2.60;99.90
19930;DHT22;10127;47.780;9.606;2023-02-28T08:33:42;2.90;99.90
19930;DHT22;10127;47.780;9.606;2023-02-28T08:36:08;2.70;99.90
19930;DHT22;10127;47.780;9.606;2023-02-28T08:38:35;2.70;99.90
19930;DHT22;10127;47.780;9.606;2023-02-28T08:41:05;2.70;99.90
19930;DHT22;10127;47.780;9.606;2023-02-28T08:43:33;2.80;99.90
19930;DHT22;10127;47.780;9.606;2023-02-28T08:45:59;3.00;99.90
19930;DHT22;10127;47.780;9.606;2023-02-28T08:48:26;3.10;99.90
19930;DHT22;10127;47.780;9.606;2023-02-28T08:51:03;2.90;99.90
19930;DHT22;10127;47.780;9.606;2023-02-28T08:53:29;2.70;99.90
19930;DHT22;10127;47.780;9.606;2023-02-28T08:55:59;3.20;99.90
19930;DHT22;10127;47.780;9.606;2023-02-28T08:58:25;3.30;99.90
19930;DHT22;10127;47.780;9.606;2023-02-28T09:00:51;3.50;99.90
19930;DHT22;10127;47.780;9.606;2023-02-28T09:03:17;3.30;99.90
19930;DHT22;10127;47.780;9.606;2023-02-28T09:05:59;3.00;99.90
19930;DHT22;10127;47.780;9.606;2023-02-28T09:08:27;3.10;99.90
19930;DHT22;10127;47.780;9.606;2023-02-28T09:10:54;3.00;99.90
19930;DHT22;10127;47.780;9.606;2023-02-28T09:13:22;3.00;99.90
19930;DHT22;10127;47.780;9.606;2023-02-28T09:15:47;3.00;99.90
19930;DHT22;10127;47.780;9.606;2023-02-28T09:18:14;3.10;99.90
19930;DHT22;10127;47.780;9.606;2023-02-28T09:20:41;3.00;99.90
19930;DHT22;10127;47.780;9.606;2023-02-28T09:23:08;3.00;99.90
19930;DHT22;10127;47.780;9.606;2023-02-28T09:25:34;2.80;99.90
19930;DHT22;10127;47.780;9.606;2023-02-28T09:28:00;2.70;99.90
19930;DHT22;10127;47.780;9.606;2023-02-28T09:30:26;3.00;99.90
19930;DHT22;10127;47.780;9.606;2023-02-28T09:32:52;3.00;99.90
19930;DHT22;10127;47.780;9.606;2023-02-28T09:35:19;2.90;99.90
19930;DHT22;10127;47.780;9.606;2023-02-28T09:37:46;3.00;99.90
19930;DHT22;10127;47.780;9.606;2023-02-28T09:40:13;3.10;99.90
19930;DHT22;10127;47.780;9.606;2023-02-28T09:42:40;3.00;99.90
19930;DHT22;10127;47.780;9.606;2023-02-28T09:45:30;3.40;99.90
19930;DHT22;10127;47.780;9.606;2023-02-28T09:48:01;3.20;99.90
19930;DHT22;10127;47.780;9.606;2023-02-28T09:50:39;3.50;99.90
19930;DHT22;10127;47.780;9.606;2023-02-28T09:55:51;3.90;99.90
19930;DHT22;10127;47.780;9.606;2023-02-28T09:58:26;3.60;99.90
19930;DHT22;10127;47.780;9.606;2023-02-28T10:01:09;3.40;99.90
19930;DHT22;10127;47.780;9.606;2023-02-28T10:03:43;3.50;99.90
19930;DHT22;10127;47.780;9.606;2023-02-28T10:06:17;3.40;99.90
19930;DHT22;10127;47.780;9.606;2023-02-28T10:09:00;3.10;99.90
19930;DHT22;10127;47.780;9.606;2023-02-28T10:11:27;3.30;99.90
19930;DHT22;10127;47.780;9.606;2023-02-28T10:14:01;3.20;99.90
19930;DHT22;10127;47.780;9.606;2023-02-28T10:16:39;3.30;99.90
19930;DHT22;10127;47.780;9.606;2023-02-28T10:19:30;3.20;99.90
19930;DHT22;10127;47.780;9.606;2023-02-28T10:22:25;3.50;99.90
19930;DHT22;10127;47.780;9.606;2023-02-28T10:24:54;3.50;99.90
19930;DHT22;10127;47.780;9.606;2023-02-28T10:27:33;3.70;99.90
19930;DHT22;10127;47.780;9.606;2023-02-28T10:30:01;3.70;99.90
19930;DHT22;10127;47.780;9.606;2023-02-28T10:32:30;3.70;99.90
19930;DHT22;10127;47.780;9.606;2023-02-28T10:35:00;4.00;99.90
19930;DHT22;10127;47.780;9.606;2023-02-28T10:37:27;4.10;99.90
19930;DHT22;10127;47.780;9.606;2023-02-28T10:39:53;4.30;99.90
19930;DHT22;10127;47.780;9.606;2023-02-28T10:42:26;4.40;99.90
19930;DHT22;10127;47.780;9.606;2023-02-28T10:45:09;4.20;99.90
19930;DHT22;10127;47.780;9.606;2023-02-28T10:47:40;4.00;99.90
19930;DHT22;10127;47.780;9.606;2023-02-28T10:52:55;3.70;99.90
19930;DHT22;10127;47.780;9.606;2023-02-28T10:55:30;4.10;99.90
19930;DHT22;10127;47.780;9.606;2023-02-28T10:57:57;4.30;99.90
19930;DHT22;10127;47.780;9.606;2023-02-28T11:00:24;4.50;99.90
19930;DHT22;10127;47.780;9.606;2023-02-28T11:02:51;4.30;99.90
19930;DHT22;10127;47.780;9.606;2023-02-28T11:05:30;4.40;99.90
19930;DHT22;10127;47.780;9.606;2023-02-28T11:10:39;4.40;99.90
19930;DHT22;10127;47.780;9.606;2023-02-28T11:13:05;4.30;99.90
19930;DHT22;10127;47.780;9.606;2023-02-28T11:15:33;4.20;99.90
19930;DHT22;10127;47.780;9.606;2023-02-28T11:18:17;4.20;99.90
19930;DHT22;10127;47.780;9.606;2023-02-28T11:20:48;4.60;99.90
19930;DHT22;10127;47.780;9.606;2023-02-28T11:23:15;4.90;99.90
19930;DHT22;10127;47.780;9.606;2023-02-28T11:25:51;4.60;99.90
19930;DHT22;10127;47.780;9.606;2023-02-28T11:28:32;4.80;99.90
19930;DHT22;10127;47.780;9.606;2023-02-28T11:33:40;4.50;99.90
19930;DHT22;10127;47.780;9.606;2023-02-28T11:36:30;4.70;99.90
19930;DHT22;10127;47.780;9.606;2023-02-28T11:38:59;5.00;99.90
19930;DHT22;10127;47.780;9.606;2023-02-28T11:41:49;5.20;99.90
19930;DHT22;10127;47.780;9.606;2023-02-28T11:45:27;5.10;99.90
19930;DHT22;10127;47.780;9.606;2023-02-28T11:47:41;5.10;99.90
19930;DHT22;10127;47.780;9.606;2023-02-28T11:50:20;4.90;99.90
19930;DHT22;10127;47.780;9.606;2023-02-28T11:52:57;4.70;99.90
19930;DHT22;10127;47.780;9.606;2023-02-28T11:58:17;4.60;99.90
19930;DHT22;10127;47.780;9.606;2023-02-28T12:09:00;4.00;99.90
19930;DHT22;10127;47.780;9.606;2023-02-28T12:14:44;4.40;99.90
19930;DHT22;10127;47.780;9.606;2023-02-28T12:20:25;4.70;99.90
19930;DHT22;10127;47.780;9.606;2023-02-28T12:23:17;4.70;99.90
19930;DHT22;10127;47.780;9.606;2023-02-28T12:28:18;5.10;99.90
19930;DHT22;10127;47.780;9.606;2023-02-28T12:33:28;5.30;99.90
19930;DHT22;10127;47.780;9.606;2023-02-28T12:35:59;5.70;99.90
19930;DHT22;10127;47.780;9.606;2023-02-28T12:38:40;5.40;99.90
19930;DHT22;10127;47.780;9.606;2023-02-28T12:41:13;5.60;99.90
19930;DHT22;10127;47.780;9.606;2023-02-28T12:43:44;5.70;99.90
19930;DHT22;10127;47.780;9.606;2023-02-28T12:46:19;5.30;99.90
19930;DHT22;10127;47.780;9.606;2023-02-28T12:48:50;5.50;99.90
19930;DHT22;10127;47.780;9.606;2023-02-28T12:51:18;5.40;99.90
19930;DHT22;10127;47.780;9.606;2023-02-28T12:56:47;5.10;99.90
19930;DHT22;10127;47.780;9.606;2023-02-28T12:59:31;4.90;99.90
19930;DHT22;10127;47.780;9.606;2023-02-28T13:02:04;5.10;99.90
19930;DHT22;10127;47.780;9.606;2023-02-28T13:10:10;5.80;99.90
19930;DHT22;10127;47.780;9.606;2023-02-28T13:12:36;5.30;99.90
19930;DHT22;10127;47.780;9.606;2023-02-28T13:15:08;5.10;99.90
19930;DHT22;10127;47.780;9.606;2023-02-28T13:17:40;5.00;99.90
19930;DHT22;10127;47.780;9.606;2023-02-28T13:20:37;4.80;99.90
19930;DHT22;10127;47.780;9.606;2023-02-28T13:23:02;5.10;99.90
19930;DHT22;10127;47.780;9.606;2023-02-28T13:28:08;5.00;99.90
19930;DHT22;10127;47.780;9.606;2023-02-28T13:35:50;4.50;99.90
19930;DHT22;10127;47.780;9.606;2023-02-28T13:38:42;4.50;99.90
19930;DHT22;10127;47.780;9.606;2023-02-28T14:00:26;5.50;99.90
19930;DHT22;10127;47.780;9.606;2023-02-28T14:03:22;5.50;99.90
19930;DHT22;10127;47.780;9.606;2023-02-28T14:11:41;5.50;99.90
19930;DHT22;10127;47.780;9.606;2023-02-28T14:14:09;5.40;99.90
19930;DHT22;10127;47.780;9.606;2023-02-28T14:16:55;5.50;99.90
19930;DHT22;10127;47.780;9.606;2023-02-28T14:19:28;5.80;99.90
19930;DHT22;10127;47.780;9.606;2023-02-28T14:25:16;5.20;99.90
19930;DHT22;10127;47.780;9.606;2023-02-28T14:28:04;5.40;99.90
19930;DHT22;10127;47.780;9.606;2023-02-28T14:30:53;5.50;99.90
19930;DHT22;10127;47.780;9.606;2023-02-28T14:33:45;5.30;99.90
19930;DHT22;10127;47.780;9.606;2023-02-28T14:36:16;5.30;99.90
19930;DHT22;10127;47.780;9.606;2023-02-28T14:38:47;5.20;99.90
19930;DHT22;10127;47.780;9.606;2023-02-28T14:41:26;5.00;99.90
19930;DHT22;10127;47.780;9.606;2023-02-28T14:43:57;4.50;99.90
19930;DHT22;10127;47.780;9.606;2023-02-28T14:46:35;4.40;99.90
19930;DHT22;10127;47.780;9.606;2023-02-28T14:49:04;4.40;99.90
19930;DHT22;10127;47.780;9.606;2023-02-28T14:51:30;4.50;99.90
19930;DHT22;10127;47.780;9.606;2023-02-28T14:53:59;4.10;99.90
19930;DHT22;10127;47.780;9.606;2023-02-28T14:56:34;3.80;99.90
19930;DHT22;10127;47.780;9.606;2023-02-28T14:59:00;3.70;99.90
19930;DHT22;10127;47.780;9.606;2023-02-28T15:01:26;3.70;99.90
19930;DHT22;10127;47.780;9.606;2023-02-28T15:04:04;3.60;99.90
19930;DHT22;10127;47.780;9.606;2023-02-28T15:06:32;3.60;99.90
19930;DHT22;10127;47.780;9.606;2023-02-28T15:09:27;3.60;99.90
19930;DHT22;10127;47.780;9.606;2023-02-28T15:11:54;3.70;99.90
19930;DHT22;10127;47.780;9.606;2023-02-28T15:14:21;3.60;99.90
19930;DHT22;10127;47.780;9.606;2023-02-28T15:16:59;3.80;99.90
19930;DHT22;10127;47.780;9.606;2023-02-28T15:19:29;3.40;99.90
19930;DHT22;10127;47.780;9.606;2023-02-28T15:21:59;3.50;99.90
19930;DHT22;10127;47.780;9.606;2023-02-28T15:27:05;3.30;99.90
19930;DHT22;10127;47.780;9.606;2023-02-28T15:29:45;3.50;99.90
19930;DHT22;10127;47.780;9.606;2023-02-28T15:32:36;3.70;99.90
19930;DHT22;10127;47.780;9.606;2023-02-28T15:38:13;3.40;99.90
19930;DHT22;10127;47.780;9.606;2023-02-28T15:40:51;3.40;99.90
19930;DHT22;10127;47.780;9.606;2023-02-28T15:43:37;3.50;99.90
19930;DHT22;10127;47.780;9.606;2023-02-28T15:46:06;3.30;99.90
19930;DHT22;10127;47.780;9.606;2023-02-28T15:48:38;3.30;99.90
19930;DHT22;10127;47.780;9.606;2023-02-28T15:51:28;3.40;99.90
19930;DHT22;10127;47.780;9.606;2023-02-28T15:53:58;3.50;99.90
19930;DHT22;10127;47.780;9.606;2023-02-28T15:56:27;3.70;99.90
19930;DHT22;10127;47.780;9.606;2023-02-28T15:58:55;3.80;99.90
19930;DHT22;10127;47.780;9.606;2023-02-28T16:01:27;3.90;99.90
19930;DHT22;10127;47.780;9.606;2023-02-28T16:04:01;3.60;99.90
19930;DHT22;10127;47.780;9.606;2023-02-28T16:06:34;3.60;99.90
19930;DHT22;10127;47.780;9.606;2023-02-28T16:09:01;3.60;99.90
19930;DHT22;10127;47.780;9.606;2023-02-28T16:11:26;3.40;99.90
19930;DHT22;10127;47.780;9.606;2023-02-28T16:13:53;3.50;99.90
19930;DHT22;10127;47.780;9.606;2023-02-28T16:16:22;3.60;99.90
19930;DHT22;10127;47.780;9.606;2023-02-28T16:18:48;3.50;99.90
19930;DHT22;10127;47.780;9.606;2023-02-28T16:21:13;3.60;99.90
19930;DHT22;10127;47.780;9.606;2023-02-28T16:23:39;3.40;99.90
19930;DHT22;10127;47.780;9.606;2023-02-28T16:26:05;3.40;99.90
19930;DHT22;10127;47.780;9.606;2023-02-28T16:28:35;3.30;99.90
19930;DHT22;10127;47.780;9.606;2023-02-28T16:31:01;3.30;99.90
19930;DHT22;10127;47.780;9.606;2023-02-28T16:33:30;3.10;99.90
19930;DHT22;10127;47.780;9.606;2023-02-28T16:35:56;3.20;99.90
19930;DHT22;10127;47.780;9.606;2023-02-28T16:38:22;3.30;99.90
19930;DHT22;10127;47.780;9.606;2023-02-28T16:40:50;3.20;99.90
19930;DHT22;10127;47.780;9.606;2023-02-28T16:43:19;3.00;99.90
19930;DHT22;10127;47.780;9.606;2023-02-28T16:45:46;3.10;99.90
19930;DHT22;10127;47.780;9.606;2023-02-28T16:48:14;3.20;99.90
19930;DHT22;10127;47.780;9.606;2023-02-28T16:50:41;3.00;99.90
19930;DHT22;10127;47.780;9.606;2023-02-28T16:53:07;2.90;99.90
19930;DHT22;10127;47.780;9.606;2023-02-28T16:55:34;2.90;99.90
19930;DHT22;10127;47.780;9.606;2023-02-28T16:58:02;2.90;99.90
19930;DHT22;10127;47.780;9.606;2023-02-28T17:00:29;2.70;99.90
19930;DHT22;10127;47.780;9.606;2023-02-28T17:02:56;2.70;99.90
19930;DHT22;10127;47.780;9.606;2023-02-28T17:05:22;2.80;99.90
19930;DHT22;10127;47.780;9.606;2023-02-28T17:07:49;2.90;99.90
19930;DHT22;10127;47.780;9.606;2023-02-28T17:10:21;2.90;99.90
19930;DHT22;10127;47.780;9.606;2023-02-28T17:12:48;2.90;99.90
19930;DHT22;10127;47.780;9.606;2023-02-28T17:15:15;2.90;99.90
19930;DHT22;10127;47.780;9.606;2023-02-28T17:17:42;2.80;99.90
19930;DHT22;10127;47.780;9.606;2023-02-28T17:20:14;2.60;99.90
19930;DHT22;10127;47.780;9.606;2023-02-28T17:22:40;2.60;99.90
19930;DHT22;10127;47.780;9.606;2023-02-28T17:25:06;2.50;99.90
19930;DHT22;10127;47.780;9.606;2023-02-28T17:27:32;2.50;99.90
19930;DHT22;10127;47.780;9.606;2023-02-28T17:29:58;2.60;99.90
19930;DHT22;10127;47.780;9.606;2023-02-28T17:32:23;2.50;99.90
19930;DHT22;10127;47.780;9.606;2023-02-28T17:34:49;2.50;99.90
19930;DHT22;10127;47.780;9.606;2023-02-28T17:37:15;2.50;99.90
19930;DHT22;10127;47.780;9.606;2023-02-28T17:39:40;2.40;99.90
19930;DHT22;10127;47.780;9.606;2023-02-28T17:42:06;2.40;99.90
19930;DHT22;10127;47.780;9.606;2023-02-28T17:44:33;2.30;99.90
19930;DHT22;10127;47.780;9.606;2023-02-28T17:46:59;2.20;99.90
19930;DHT22;10127;47.780;9.606;2023-02-28T17:49:24;2.30;99.90
19930;DHT22;10127;47.780;9.606;2023-02-28T17:51:50;2.40;99.90
19930;DHT22;10127;47.780;9.606;2023-02-28T17:54:15;2.30;99.90
19930;DHT22;10127;47.780;9.606;2023-02-28T17:56:41;2.30;99.90
19930;DHT22;10127;47.780;9.606;2023-02-28T17:59:10;2.30;99.90
19930;DHT22;10127;47.780;9.606;2023-02-28T18:01:36;2.30;99.90
19930;DHT22;10127;47.780;9.606;2023-02-28T18:04:02;2.30;99.90
19930;DHT22;10127;47.780;9.606;2023-02-28T18:06:36;2.30;99.90
19930;DHT22;10127;47.780;9.606;2023-02-28T18:09:14;2.30;99.90
19930;DHT22;10127;47.780;9.606;2023-02-28T18:11:40;2.20;99.90
19930;DHT22;10127;47.780;9.606;2023-02-28T18:14:13;2.30;99.90
19930;DHT22;10127;47.780;9.606;2023-02-28T18:16:39;2.30;99.90
19930;DHT22;10127;47.780;9.606;2023-02-28T18:19:04;2.30;99.90
19930;DHT22;10127;47.780;9.606;2023-02-28T18:21:31;2.30;99.90
19930;DHT22;10127;47.780;9.606;2023-02-28T18:23:57;2.10;99.90
19930;DHT22;10127;47.780;9.606;2023-02-28T18:26:22;1.90;99.90
19930;DHT22;10127;47.780;9.606;2023-02-28T18:28:48;1.70;99.90